createdAt,value
2022-08-17T00:00:43.532Z,100369.00
2022-08-17T00:03:11.348Z,100411.28
2022-08-17T00:05:45.191Z,100437.31
2022-08-17T00:08:13.258Z,100538.09
2022-08-17T00:10:41.265Z,100619.69
2022-08-17T00:13:09.746Z,100497.28
2022-08-17T00:15:39.669Z,100412.13
2022-08-17T00:18:53.867Z,100450.94
2022-08-17T00:20:56.058Z,100403.81
2022-08-17T00:23:24.272Z,100503.03
2022-08-17T00:25:52.537Z,100498.78
2022-08-17T00:28:20.948Z,100577.00
2022-08-17T00:30:53.411Z,100669.53
2022-08-17T00:33:25.564Z,100588.25
2022-08-17T00:35:55.563Z,100648.03
2022-08-17T00:38:24.350Z,100572.72
2022-08-17T00:40:55.946Z,100580.47
2022-08-17T00:43:33.084Z,100530.69
2022-08-17T00:46:07.874Z,100623.19
2022-08-17T00:48:36.283Z,100547.91
2022-08-17T00:51:09.222Z,100502.31
2022-08-17T00:53:41.890Z,100427.53
2022-08-17T00:56:12.807Z,100423.31
2022-08-17T00:58:41.443Z,100453.03
2022-08-17T01:01:12.855Z,100441.06
2022-08-17T01:03:51.554Z,100418.84
2022-08-17T01:06:20.316Z,100449.88
2022-08-17T01:08:48.115Z,100533.38
2022-08-17T01:11:25.692Z,100643.09
2022-08-17T01:13:53.685Z,100697.56
2022-08-17T01:16:26.184Z,100773.34
2022-08-17T01:18:56.733Z,100795.47
2022-08-17T01:21:33.025Z,100815.50
2022-08-17T01:24:02.345Z,100784.41
2022-08-17T01:26:31.499Z,100798.41
2022-08-17T01:28:59.697Z,100896.22
2022-08-17T01:31:31.247Z,100763.56
2022-08-17T01:34:01.866Z,100541.66
2022-08-17T01:36:29.925Z,100534.78
2022-08-17T01:38:57.894Z,100438.44
2022-08-17T01:41:28.259Z,100447.09
2022-08-17T01:44:00.687Z,100507.56
2022-08-17T01:46:35.425Z,100686.44
2022-08-17T01:49:07.654Z,100597.88
2022-08-17T01:51:35.416Z,100546.25
2022-08-17T01:54:09.487Z,100542.38
2022-08-17T01:56:42.515Z,100547.09
2022-08-17T01:59:10.350Z,100482.56
2022-08-17T02:01:38.935Z,100388.13
2022-08-17T02:04:08.395Z,100405.53
2022-08-17T02:06:52.753Z,100416.84
2022-08-17T02:09:24.078Z,100609.41
2022-08-17T02:11:55.196Z,100613.25
2022-08-17T02:14:25.331Z,100598.22
2022-08-17T02:16:53.779Z,100513.84
2022-08-17T02:19:21.859Z,100487.31
2022-08-17T02:21:51.907Z,100399.66
2022-08-17T02:24:58.754Z,100437.94
2022-08-17T02:27:12.891Z,100435.47
2022-08-17T02:29:40.616Z,100440.19
2022-08-17T02:32:22.271Z,100456.53
2022-08-17T02:34:55.897Z,100403.41
2022-08-17T02:37:23.674Z,100328.28
2022-08-17T02:39:51.664Z,100276.38
2022-08-17T02:42:27.788Z,100329.53
2022-08-17T02:44:55.535Z,100387.72
2022-08-17T02:47:23.208Z,100459.91
2022-08-17T02:49:54.411Z,100515.84
2022-08-17T02:52:42.684Z,100581.69
2022-08-17T02:55:13.782Z,100572.75
2022-08-17T02:57:42.839Z,100604.19
2022-08-17T03:00:14.814Z,100610.16
2022-08-17T03:02:44.622Z,100632.47
2022-08-17T03:05:15.006Z,100676.78
2022-08-17T03:07:43.276Z,100727.31
2022-08-17T03:10:12.227Z,100767.03
2022-08-17T03:12:43.306Z,100781.41
2022-08-17T03:15:13.472Z,100830.94
2022-08-17T03:17:41.394Z,100878.19
2022-08-17T03:20:10.334Z,101011.41
2022-08-17T03:22:39.480Z,100713.06
2022-08-17T03:25:10.686Z,100635.34
2022-08-17T03:27:38.642Z,100531.38
2022-08-17T03:30:13.538Z,100488.44
2022-08-17T03:32:42.856Z,100469.19
2022-08-17T03:35:12.578Z,100455.78
2022-08-17T03:37:42.826Z,100415.53
2022-08-17T03:40:12.429Z,100365.06
2022-08-17T03:42:41.535Z,100310.69
2022-08-17T03:45:15.628Z,100365.09
2022-08-17T03:48:06.905Z,100424.06
2022-08-17T03:50:52.388Z,100529.66
2022-08-17T03:53:37.876Z,100546.19
2022-08-17T03:56:23.665Z,100661.81
2022-08-17T03:58:51.584Z,100717.25
2022-08-17T04:01:20.673Z,100762.75
2022-08-17T04:03:48.412Z,100782.59
2022-08-17T04:06:16.569Z,100890.34
2022-08-17T04:08:44.207Z,100878.47
2022-08-17T04:11:11.862Z,100697.66
2022-08-17T04:13:39.453Z,100692.81
2022-08-17T04:16:07.432Z,100763.47
2022-08-17T04:18:36.434Z,100801.34
2022-08-17T04:21:04.143Z,100825.03
2022-08-17T04:23:33.743Z,100855.66
2022-08-17T04:26:01.731Z,100896.28
2022-08-17T04:28:29.990Z,100947.88
2022-08-17T04:30:58.442Z,100987.78
2022-08-17T04:33:27.813Z,100974.06
2022-08-17T04:35:59.826Z,100987.88
2022-08-17T04:38:29.905Z,101008.34
2022-08-17T04:41:15.787Z,101066.41
2022-08-17T04:43:44.633Z,100660.75
2022-08-17T04:46:14.497Z,100700.81
2022-08-17T04:48:44.313Z,100536.06
2022-08-17T04:51:16.135Z,100473.16
2022-08-17T04:53:46.570Z,100527.25
2022-08-17T04:56:22.242Z,100588.78
2022-08-17T04:58:53.874Z,100575.34
2022-08-17T05:01:24.593Z,100496.72
2022-08-17T05:03:53.484Z,100492.31
2022-08-17T05:06:23.395Z,100459.31
2022-08-17T05:08:51.071Z,100404.13
2022-08-17T05:11:19.123Z,100448.19
2022-08-17T05:13:49.998Z,100418.94
2022-08-17T05:16:19.010Z,100451.56
2022-08-17T05:18:47.250Z,100475.34
2022-08-17T05:21:16.066Z,100439.63
2022-08-17T05:23:50.329Z,100454.13
2022-08-17T05:26:26.658Z,100528.03
2022-08-17T05:28:57.239Z,100566.84
2022-08-17T05:31:28.212Z,100538.72
2022-08-17T05:33:55.990Z,100418.38
2022-08-17T05:36:41.808Z,100365.31
2022-08-17T05:39:16.292Z,100412.78
2022-08-17T05:41:45.532Z,100420.53
2022-08-17T05:44:13.165Z,100536.97
2022-08-17T05:46:44.809Z,100541.53
2022-08-17T05:49:14.824Z,100559.09
2022-08-17T05:52:00.886Z,100746.09
2022-08-17T05:54:39.952Z,100646.78
2022-08-17T05:57:39.506Z,100378.88
2022-08-17T06:00:17.000Z,100224.91
2022-08-17T06:02:59.372Z,100460.56
2022-08-17T06:05:39.159Z,100400.84
2022-08-17T06:08:14.055Z,100316.16
2022-08-17T06:10:48.111Z,100431.28
2022-08-17T06:13:23.949Z,100283.22
2022-08-17T06:16:03.006Z,100324.94
2022-08-17T06:18:37.529Z,100274.28
2022-08-17T06:21:08.207Z,100155.75
2022-08-17T06:23:39.617Z,100102.94
2022-08-17T06:26:13.879Z,100031.66
2022-08-17T06:28:48.034Z,100129.06
2022-08-17T06:31:22.536Z,100103.47
2022-08-17T06:33:51.363Z,100054.31
2022-08-17T06:36:40.101Z,99964.34
2022-08-17T06:39:26.572Z,99970.94
2022-08-17T06:42:05.542Z,99979.56
2022-08-17T06:44:49.634Z,100053.22
2022-08-17T06:47:28.908Z,100094.59
2022-08-17T06:50:09.156Z,100007.38
2022-08-17T06:52:46.326Z,100102.28
2022-08-17T06:55:21.249Z,99963.91
2022-08-17T06:57:52.565Z,100089.91
2022-08-17T07:00:23.857Z,99979.00
2022-08-17T07:02:57.154Z,100015.72
2022-08-17T07:05:27.800Z,99950.34
2022-08-17T07:08:02.532Z,99920.34
2022-08-17T07:10:36.526Z,99975.03
2022-08-17T07:13:29.490Z,100094.38
2022-08-17T07:16:07.317Z,100076.63
2022-08-17T07:18:34.967Z,100019.69
2022-08-17T07:21:14.216Z,100016.78
2022-08-17T07:24:01.820Z,100075.97
2022-08-17T07:26:29.782Z,99916.47
2022-08-17T07:29:02.272Z,99880.63
2022-08-17T07:31:33.681Z,99824.16
2022-08-17T07:34:08.609Z,99856.22
2022-08-17T07:36:36.499Z,99658.94
2022-08-17T07:39:05.442Z,99723.28
2022-08-17T07:41:57.598Z,99851.66
2022-08-17T07:44:28.737Z,99845.09
2022-08-17T07:47:14.750Z,99809.41
2022-08-17T07:49:46.082Z,99827.69
2022-08-17T07:52:50.619Z,99751.34
2022-08-17T07:55:27.686Z,99791.78
2022-08-17T07:57:57.904Z,99696.88
2022-08-17T08:00:32.123Z,99808.44
2022-08-17T08:03:05.949Z,99735.00
2022-08-17T08:05:50.583Z,99862.34
2022-08-17T08:08:27.985Z,99752.56
2022-08-17T08:11:02.666Z,99637.59
2022-08-17T08:13:32.317Z,99567.50
2022-08-17T08:16:26.454Z,99774.00
2022-08-17T08:18:57.989Z,99702.75
2022-08-17T08:21:37.156Z,99743.72
2022-08-17T08:24:23.538Z,99897.19
2022-08-17T08:26:57.983Z,99694.72
2022-08-17T08:29:31.299Z,99814.16
2022-08-17T08:32:10.412Z,99918.88
2022-08-17T08:35:02.314Z,99736.84
2022-08-17T08:37:43.561Z,99697.56
2022-08-17T08:40:29.840Z,99712.34
2022-08-17T08:43:08.335Z,99716.50
2022-08-17T08:45:47.132Z,99700.31
2022-08-17T08:48:53.015Z,99682.63
2022-08-17T08:51:34.811Z,99771.22
2022-08-17T08:54:09.975Z,99870.50
2022-08-17T08:57:11.614Z,99866.53
2022-08-17T08:59:35.094Z,99857.13
2022-08-17T09:02:23.373Z,99864.34
2022-08-17T09:05:14.236Z,99840.38
2022-08-17T09:07:56.243Z,99828.97
2022-08-17T09:10:30.733Z,99978.09
2022-08-17T09:13:10.282Z,99965.91
2022-08-17T09:15:43.501Z,99988.88
2022-08-17T09:19:03.411Z,99907.13
2022-08-17T09:21:12.009Z,99921.72
2022-08-17T09:23:49.563Z,99833.31
2022-08-17T09:26:22.811Z,99807.50
2022-08-17T09:28:53.674Z,99852.78
2022-08-17T09:31:26.829Z,99871.78
2022-08-17T09:34:00.074Z,99783.16
2022-08-17T09:36:34.473Z,99746.75
2022-08-17T09:39:07.367Z,99709.28
2022-08-17T09:41:49.302Z,99798.34
2022-08-17T09:44:25.662Z,99833.63
2022-08-17T09:47:00.030Z,99771.00
2022-08-17T09:49:32.671Z,99777.47
2022-08-17T09:52:06.819Z,99817.28
2022-08-17T09:54:39.845Z,99866.28
2022-08-17T09:57:31.527Z,99796.38
2022-08-17T10:00:16.669Z,99847.44
2022-08-17T10:03:08.679Z,99778.00
2022-08-17T10:05:46.438Z,99685.78
2022-08-17T10:08:23.915Z,99696.53
2022-08-17T10:11:06.841Z,99786.72
2022-08-17T10:13:53.210Z,99755.91
2022-08-17T10:16:27.833Z,99760.09
2022-08-17T10:19:04.161Z,99752.03
2022-08-17T10:22:01.373Z,99846.72
2022-08-17T10:25:23.829Z,99884.34
2022-08-17T10:27:55.627Z,99772.13
2022-08-17T10:30:27.614Z,99744.03
2022-08-17T10:32:59.311Z,99719.88
2022-08-17T10:35:34.218Z,99758.78
2022-08-17T10:38:32.203Z,99856.22
2022-08-17T10:41:07.604Z,99779.19
2022-08-17T10:43:55.836Z,99759.41
2022-08-17T10:46:52.335Z,99768.75
2022-08-17T10:49:27.914Z,99717.84
2022-08-17T10:51:57.952Z,99842.78
2022-08-17T10:54:38.726Z,99834.88
2022-08-17T10:57:37.355Z,99869.59
2022-08-17T11:00:10.166Z,99734.91
2022-08-17T11:02:50.223Z,99803.22
2022-08-17T11:05:43.683Z,99823.41
2022-08-17T11:08:36.259Z,99821.97
2022-08-17T11:11:34.648Z,99793.53
2022-08-17T11:14:17.009Z,99699.09
2022-08-17T11:16:54.885Z,99773.78
2022-08-17T11:19:44.376Z,99703.03
2022-08-17T11:22:57.858Z,99733.19
2022-08-17T11:25:35.072Z,99753.47
2022-08-17T11:28:08.794Z,99773.44
2022-08-17T11:30:52.065Z,99763.50
2022-08-17T11:33:55.664Z,99778.72
2022-08-17T11:36:49.103Z,99748.69
2022-08-17T11:39:36.013Z,99796.75
2022-08-17T11:42:07.023Z,99841.44
2022-08-17T11:44:45.366Z,99859.09
2022-08-17T11:47:38.662Z,99878.97
2022-08-17T11:51:12.717Z,99757.22
2022-08-17T11:54:31.040Z,99841.47
2022-08-17T11:56:52.822Z,99700.00
2022-08-17T11:59:59.113Z,99724.81
2022-08-17T12:02:47.545Z,99695.44
2022-08-17T12:05:35.595Z,99651.69
2022-08-17T12:08:12.746Z,99720.38
2022-08-17T12:11:01.168Z,99704.16
2022-08-17T12:13:34.627Z,99660.69
2022-08-17T12:16:09.334Z,99750.88
2022-08-17T12:18:41.918Z,99657.09
2022-08-17T12:21:23.547Z,99626.38
2022-08-17T12:23:57.943Z,99673.53
2022-08-17T12:26:30.287Z,99758.06
2022-08-17T12:29:02.111Z,99741.88
2022-08-17T12:31:35.402Z,99813.94
2022-08-17T12:34:05.965Z,99860.41
2022-08-17T12:36:34.694Z,99880.41
2022-08-17T12:39:12.979Z,99882.19
2022-08-17T12:41:44.961Z,99710.88
2022-08-17T12:44:16.457Z,99747.00
2022-08-17T12:46:54.083Z,99757.22
2022-08-17T12:49:28.971Z,99699.22
2022-08-17T12:52:05.710Z,99693.81
2022-08-17T12:54:41.210Z,99726.72
2022-08-17T12:57:14.095Z,99696.59
2022-08-17T12:59:45.258Z,99672.72
2022-08-17T13:02:22.976Z,99646.50
2022-08-17T13:04:52.041Z,99650.00
2022-08-17T13:07:31.754Z,99638.59
2022-08-17T13:10:00.018Z,99792.06
2022-08-17T13:12:29.939Z,99780.91
2022-08-17T13:14:58.406Z,99830.72
2022-08-17T13:17:29.458Z,99701.75
2022-08-17T13:19:58.787Z,99768.63
2022-08-17T13:22:29.294Z,99714.72
2022-08-17T13:25:03.872Z,99784.03
2022-08-17T13:27:32.582Z,99695.88
2022-08-17T13:30:05.747Z,99684.19
2022-08-17T13:32:37.261Z,99667.88
2022-08-17T13:35:44.268Z,99611.34
2022-08-17T13:38:36.534Z,99639.31
2022-08-17T13:41:07.394Z,99734.69
2022-08-17T13:43:45.526Z,99707.91
2022-08-17T13:46:20.328Z,99737.78
2022-08-17T13:48:59.255Z,99754.69
2022-08-17T13:51:35.479Z,99812.25
2022-08-17T13:54:28.705Z,99721.88
2022-08-17T13:57:02.258Z,99705.81
2022-08-17T13:59:54.218Z,99780.63
2022-08-17T14:02:27.210Z,99783.66
2022-08-17T14:05:02.058Z,99752.28
2022-08-17T14:07:37.949Z,99737.91
2022-08-17T14:10:12.801Z,99754.47
2022-08-17T14:12:43.062Z,99710.28
2022-08-17T14:15:12.541Z,99731.03
2022-08-17T14:17:40.166Z,99688.69
2022-08-17T14:20:11.045Z,99694.19
2022-08-17T14:22:44.255Z,99733.69
2022-08-17T14:25:14.757Z,99692.13
2022-08-17T14:27:52.838Z,99687.22
2022-08-17T14:30:22.894Z,99730.03
2022-08-17T14:32:51.917Z,99743.72
2022-08-17T14:35:22.241Z,99808.16
2022-08-17T14:37:51.618Z,99866.66
2022-08-17T14:40:24.701Z,99926.34
2022-08-17T14:42:55.128Z,99833.63
2022-08-17T14:45:30.058Z,99874.59
2022-08-17T14:48:01.512Z,99893.22
2022-08-17T14:50:29.220Z,99873.59
2022-08-17T14:52:58.328Z,99887.56
2022-08-17T14:55:32.416Z,99832.19
2022-08-17T14:58:00.134Z,99772.97
2022-08-17T15:00:28.546Z,99860.50
2022-08-17T15:02:58.503Z,99805.34
2022-08-17T15:05:32.468Z,99827.44
2022-08-17T15:08:02.824Z,99845.22
2022-08-17T15:10:31.237Z,99803.97
2022-08-17T15:13:00.145Z,99890.91
2022-08-17T15:15:28.831Z,99845.53
2022-08-17T15:17:57.223Z,99890.19
2022-08-17T15:20:27.968Z,99859.72
2022-08-17T15:22:57.179Z,99930.28
2022-08-17T15:25:28.144Z,99944.47
2022-08-17T15:27:56.588Z,99885.25
2022-08-17T15:30:25.688Z,99913.41
2022-08-17T15:32:55.289Z,99896.91
2022-08-17T15:35:27.809Z,99930.41
2022-08-17T15:37:57.731Z,99909.13
2022-08-17T15:40:26.956Z,99924.00
2022-08-17T15:42:54.899Z,99873.16
2022-08-17T15:45:26.969Z,99810.19
2022-08-17T15:47:54.979Z,99764.44
2022-08-17T15:50:22.921Z,99781.00
2022-08-17T15:52:57.935Z,99840.03
2022-08-17T15:55:29.382Z,99838.78
2022-08-17T15:57:57.136Z,99806.00
2022-08-17T16:00:25.872Z,99743.53
2022-08-17T16:03:46.347Z,99744.47
2022-08-17T16:05:44.028Z,99737.13
2022-08-17T16:08:20.195Z,99774.47
2022-08-17T16:10:50.993Z,99746.13
2022-08-17T16:13:19.620Z,99804.84
2022-08-17T16:15:57.094Z,99788.41
2022-08-17T16:18:28.481Z,99804.78
2022-08-17T16:20:56.446Z,99810.22
2022-08-17T16:23:24.156Z,99769.13
2022-08-17T16:25:54.597Z,99792.53
2022-08-17T16:28:35.778Z,99804.47
2022-08-17T16:31:08.193Z,99806.34
2022-08-17T16:33:39.340Z,99802.41
2022-08-17T16:36:08.944Z,99822.59
2022-08-17T16:38:37.245Z,99873.88
2022-08-17T16:41:07.023Z,99892.97
2022-08-17T16:43:36.058Z,99907.41
2022-08-17T16:46:03.790Z,99911.69
2022-08-17T16:48:31.878Z,99934.34
2022-08-17T16:51:03.390Z,99941.56
2022-08-17T16:53:33.583Z,99937.56
2022-08-17T16:56:01.248Z,99938.66
2022-08-17T16:58:30.261Z,99958.31
2022-08-17T17:00:59.281Z,99969.94
2022-08-17T17:03:30.062Z,99980.88
2022-08-17T17:06:07.154Z,99989.13
2022-08-17T17:08:43.607Z,100011.28
2022-08-17T17:11:15.516Z,100000.06
2022-08-17T17:13:54.096Z,100029.38
2022-08-17T17:16:27.445Z,100043.31
2022-08-17T17:19:09.286Z,100061.47
2022-08-17T17:21:45.130Z,100079.66
2022-08-17T17:24:18.005Z,100104.34
2022-08-17T17:27:07.512Z,100112.78
2022-08-17T17:29:51.303Z,100114.03
2022-08-17T17:32:26.384Z,100115.50
2022-08-17T17:35:02.146Z,100116.56
2022-08-17T17:37:35.235Z,100142.69
2022-08-17T17:40:09.470Z,100129.09
2022-08-17T17:42:41.370Z,100126.31
2022-08-17T17:45:19.910Z,100130.75
2022-08-17T17:47:48.487Z,100106.84
2022-08-17T17:50:18.142Z,100080.03
2022-08-17T17:52:59.222Z,100068.78
2022-08-17T17:55:39.468Z,100095.56
2022-08-17T17:58:26.527Z,100090.69
2022-08-17T18:01:10.783Z,100096.13
2022-08-17T18:03:54.538Z,100096.91
2022-08-17T18:06:30.494Z,100078.50
2022-08-17T18:09:10.255Z,100058.00
2022-08-17T18:11:53.910Z,100155.94
2022-08-17T18:14:42.225Z,100150.41
2022-08-17T18:17:14.387Z,100133.06
2022-08-17T18:19:42.238Z,100133.47
2022-08-17T18:22:14.159Z,100129.81
2022-08-17T18:24:44.205Z,100142.56
2022-08-17T18:27:25.186Z,100175.78
2022-08-17T18:29:53.991Z,100171.66
2022-08-17T18:32:35.648Z,100170.03
2022-08-17T18:35:28.538Z,100173.75
2022-08-17T18:37:59.071Z,100183.28
2022-08-17T18:40:35.150Z,100183.38
2022-08-17T18:43:07.445Z,100196.63
2022-08-17T18:45:39.532Z,100197.94
2022-08-17T18:48:23.690Z,100213.78
2022-08-17T18:50:54.199Z,100209.09
2022-08-17T18:53:35.845Z,100219.69
2022-08-17T18:56:30.647Z,100240.44
2022-08-17T18:59:14.079Z,100262.38
2022-08-17T19:01:59.900Z,100269.63
2022-08-17T19:04:35.578Z,100277.34
2022-08-17T19:07:26.044Z,100281.84
2022-08-17T19:09:58.252Z,100279.84
2022-08-17T19:12:34.575Z,100297.28
2022-08-17T19:15:03.534Z,100309.25
2022-08-17T19:17:39.142Z,100301.59
2022-08-17T19:20:16.794Z,100313.56
2022-08-17T19:22:58.632Z,100311.38
2022-08-17T19:25:30.205Z,100330.91
2022-08-17T19:28:12.623Z,100337.38
2022-08-17T19:30:51.455Z,100328.03
2022-08-17T19:33:19.456Z,100336.75
2022-08-17T19:36:00.290Z,100340.84
2022-08-17T19:38:43.274Z,100352.81
2022-08-17T19:41:19.402Z,100353.34
2022-08-17T19:44:15.232Z,100356.25
2022-08-17T19:46:56.117Z,100364.28
2022-08-17T19:49:41.415Z,100358.66
2022-08-17T19:52:36.298Z,100370.63
2022-08-17T19:55:10.216Z,100369.97
2022-08-17T19:57:50.493Z,100376.13
2022-08-17T20:00:20.129Z,100380.59
2022-08-17T20:02:55.458Z,100379.41
2022-08-17T20:05:27.864Z,100383.56
2022-08-17T20:08:03.149Z,100383.41
2022-08-17T20:10:39.831Z,100389.88
2022-08-17T20:13:11.834Z,100394.81
2022-08-17T20:15:42.493Z,100390.25
2022-08-17T20:18:19.343Z,100399.09
2022-08-17T20:20:56.357Z,100404.22
2022-08-17T20:23:51.322Z,100412.91
2022-08-17T20:26:23.721Z,100451.66
2022-08-17T20:29:37.096Z,100429.13
2022-08-17T20:32:18.438Z,100439.72
2022-08-17T20:34:48.281Z,100430.50
2022-08-17T20:37:32.388Z,100476.25
2022-08-17T20:40:25.897Z,100455.44
2022-08-17T20:43:01.431Z,100428.47
2022-08-17T20:46:05.157Z,100444.16
2022-08-17T20:48:38.973Z,100442.47
2022-08-17T20:51:23.555Z,100441.59
2022-08-17T20:54:05.575Z,100441.09
2022-08-17T20:57:00.326Z,100456.78
2022-08-17T20:59:57.264Z,100457.47
2022-08-17T21:02:27.495Z,100459.53
2022-08-17T21:05:34.825Z,100459.16
2022-08-17T21:08:14.248Z,100451.69
2022-08-17T21:10:46.394Z,100459.88
2022-08-17T21:13:56.250Z,100456.78
2022-08-17T21:16:36.268Z,100468.38
2022-08-17T21:19:23.809Z,100466.69
2022-08-17T21:22:04.353Z,100474.03
2022-08-17T21:24:45.647Z,100486.47
2022-08-17T21:27:30.186Z,100488.31
2022-08-17T21:30:25.376Z,100473.16
2022-08-17T21:33:20.367Z,100466.66
2022-08-17T21:35:51.716Z,100467.53
2022-08-17T21:38:23.470Z,100474.69
2022-08-17T21:40:54.216Z,100496.53
2022-08-17T21:43:26.513Z,100492.59
2022-08-17T21:46:02.616Z,100484.38
2022-08-17T21:48:32.972Z,100484.91
2022-08-17T21:51:08.258Z,100498.22
2022-08-17T21:53:40.998Z,100502.63
2022-08-17T21:56:10.922Z,100494.44
2022-08-17T21:58:40.948Z,100508.06
2022-08-17T22:01:24.182Z,100508.06
2022-08-17T22:04:01.602Z,100511.00
2022-08-17T22:06:34.323Z,100504.84
2022-08-17T22:09:14.364Z,100530.25
2022-08-17T22:11:53.646Z,100505.00
2022-08-17T22:14:25.668Z,100527.34
2022-08-17T22:17:17.041Z,100519.47
2022-08-17T22:19:48.903Z,100510.63
2022-08-17T22:22:59.787Z,100512.16
2022-08-17T22:25:28.472Z,100531.41
2022-08-17T22:27:58.519Z,100524.06
2022-08-17T22:30:33.681Z,100525.59
2022-08-17T22:33:23.509Z,100504.06
2022-08-17T22:36:10.544Z,100524.34
2022-08-17T22:38:39.303Z,100540.16
2022-08-17T22:41:34.814Z,100537.78
2022-08-17T22:44:14.112Z,100542.06
2022-08-17T22:46:51.564Z,100535.38
2022-08-17T22:49:26.620Z,100520.03
2022-08-17T22:52:03.537Z,100538.25
2022-08-17T22:54:49.566Z,100535.00
2022-08-17T22:57:36.303Z,100528.34
2022-08-17T23:00:06.724Z,100541.09
2022-08-17T23:02:35.859Z,100530.88
2022-08-17T23:05:21.941Z,100542.13
2022-08-17T23:07:53.263Z,100540.09
2022-08-17T23:10:21.142Z,100534.28
2022-08-17T23:12:48.973Z,100548.59
2022-08-17T23:15:19.334Z,100540.72
2022-08-17T23:17:47.660Z,100547.22
2022-08-17T23:20:17.529Z,100547.22
2022-08-17T23:22:52.507Z,100560.50
2022-08-17T23:25:28.006Z,100550.28
2022-08-17T23:27:57.420Z,100529.84
2022-08-17T23:30:28.453Z,100519.78
2022-08-17T23:32:56.853Z,100534.63
2022-08-17T23:35:40.149Z,100523.38
2022-08-17T23:38:10.415Z,100548.41
2022-08-17T23:40:39.190Z,100504.94
2022-08-17T23:43:23.732Z,100522.50
2022-08-17T23:45:53.507Z,100550.56
2022-08-17T23:48:30.359Z,100554.34
2022-08-17T23:51:06.121Z,100547.41
2022-08-17T23:53:36.365Z,100508.16
2022-08-17T23:56:10.341Z,100515.09
2022-08-17T23:58:39.606Z,100507.22
